sensor_id;sensor_type;location;lat;lon;timestamp;P1;durP1;ratioP1;P2;durP2;ratioP2
60478;SDS011;46321;48.398;11.754;2022-11-15T00:01:43;30.17;;;16.35;;
60478;SDS011;46321;48.398;11.754;2022-11-15T00:04:09;28.35;;;14.95;;
60478;SDS011;46321;48.398;11.754;2022-11-15T00:06:35;28.88;;;15.65;;
60478;SDS011;46321;48.398;11.754;2022-11-15T00:09:00;27.58;;;14.70;;
60478;SDS011;46321;48.398;11.754;2022-11-15T00:11:26;27.98;;;15.07;;
60478;SDS011;46321;48.398;11.754;2022-11-15T00:13:55;28.67;;;14.55;;
60478;SDS011;46321;48.398;11.754;2022-11-15T00:16:21;28.10;;;14.82;;
60478;SDS011;46321;48.398;11.754;2022-11-15T00:18:47;34.55;;;16.52;;
60478;SDS011;46321;48.398;11.754;2022-11-15T00:21:12;30.75;;;16.08;;
60478;SDS011;46321;48.398;11.754;2022-11-15T00:23:39;27.10;;;15.02;;
60478;SDS011;46321;48.398;11.754;2022-11-15T00:26:04;27.65;;;15.00;;
60478;SDS011;46321;48.398;11.754;2022-11-15T00:28:30;32.30;;;15.75;;
60478;SDS011;46321;48.398;11.754;2022-11-15T00:30:59;31.38;;;15.48;;
60478;SDS011;46321;48.398;11.754;2022-11-15T00:33:29;27.07;;;15.53;;
60478;SDS011;46321;48.398;11.754;2022-11-15T00:36:04;29.65;;;15.15;;
60478;SDS011;46321;48.398;11.754;2022-11-15T00:38:35;29.50;;;14.32;;
60478;SDS011;46321;48.398;11.754;2022-11-15T00:41:01;28.23;;;15.50;;
60478;SDS011;46321;48.398;11.754;2022-11-15T00:43:30;27.42;;;14.35;;
60478;SDS011;46321;48.398;11.754;2022-11-15T00:45:55;31.00;;;14.82;;
60478;SDS011;46321;48.398;11.754;2022-11-15T00:48:21;24.52;;;13.82;;
60478;SDS011;46321;48.398;11.754;2022-11-15T00:50:46;27.48;;;15.15;;
60478;SDS011;46321;48.398;11.754;2022-11-15T00:53:12;27.20;;;13.63;;
60478;SDS011;46321;48.398;11.754;2022-11-15T00:55:38;29.08;;;14.70;;
60478;SDS011;46321;48.398;11.754;2022-11-15T00:58:03;23.58;;;13.07;;
60478;SDS011;46321;48.398;11.754;2022-11-15T01:00:28;28.67;;;14.05;;
60478;SDS011;46321;48.398;11.754;2022-11-15T01:02:53;25.75;;;12.52;;
60478;SDS011;46321;48.398;11.754;2022-11-15T01:05:19;22.83;;;12.90;;
60478;SDS011;46321;48.398;11.754;2022-11-15T01:07:45;25.25;;;13.25;;
60478;SDS011;46321;48.398;11.754;2022-11-15T01:10:10;24.08;;;13.73;;
60478;SDS011;46321;48.398;11.754;2022-11-15T01:12:35;26.67;;;13.15;;
60478;SDS011;46321;48.398;11.754;2022-11-15T01:15:01;25.38;;;12.82;;
60478;SDS011;46321;48.398;11.754;2022-11-15T01:17:26;25.60;;;12.10;;
60478;SDS011;46321;48.398;11.754;2022-11-15T01:19:52;20.83;;;11.40;;
60478;SDS011;46321;48.398;11.754;2022-11-15T01:22:17;21.88;;;11.73;;
60478;SDS011;46321;48.398;11.754;2022-11-15T01:24:42;25.80;;;12.85;;
60478;SDS011;46321;48.398;11.754;2022-11-15T01:27:08;20.48;;;11.27;;
60478;SDS011;46321;48.398;11.754;2022-11-15T01:29:33;18.85;;;11.18;;
60478;SDS011;46321;48.398;11.754;2022-11-15T01:31:58;19.52;;;11.32;;
60478;SDS011;46321;48.398;11.754;2022-11-15T01:34:24;18.52;;;10.48;;
60478;SDS011;46321;48.398;11.754;2022-11-15T01:36:49;20.67;;;11.27;;
60478;SDS011;46321;48.398;11.754;2022-11-15T01:39:14;23.02;;;11.05;;
60478;SDS011;46321;48.398;11.754;2022-11-15T01:41:40;21.13;;;11.43;;
60478;SDS011;46321;48.398;11.754;2022-11-15T01:46:55;16.73;;;10.43;;
60478;SDS011;46321;48.398;11.754;2022-11-15T01:49:22;20.67;;;10.52;;
60478;SDS011;46321;48.398;11.754;2022-11-15T01:51:48;20.15;;;10.85;;
60478;SDS011;46321;48.398;11.754;2022-11-15T01:54:15;19.70;;;10.50;;
60478;SDS011;46321;48.398;11.754;2022-11-15T01:56:46;18.30;;;10.18;;
60478;SDS011;46321;48.398;11.754;2022-11-15T01:59:17;17.98;;;10.57;;
60478;SDS011;46321;48.398;11.754;2022-11-15T02:01:43;21.73;;;11.05;;
60478;SDS011;46321;48.398;11.754;2022-11-15T02:04:13;18.98;;;10.60;;
60478;SDS011;46321;48.398;11.754;2022-11-15T02:06:42;19.55;;;10.52;;
60478;SDS011;46321;48.398;11.754;2022-11-15T02:09:09;18.25;;;10.40;;
60478;SDS011;46321;48.398;11.754;2022-11-15T02:11:35;19.48;;;9.70;;
60478;SDS011;46321;48.398;11.754;2022-11-15T02:14:01;18.45;;;10.15;;
60478;SDS011;46321;48.398;11.754;2022-11-15T02:19:13;18.02;;;9.65;;
60478;SDS011;46321;48.398;11.754;2022-11-15T02:24:16;20.15;;;9.43;;
60478;SDS011;46321;48.398;11.754;2022-11-15T02:32:51;18.42;;;9.75;;
60478;SDS011;46321;48.398;11.754;2022-11-15T02:37:55;15.07;;;9.27;;
60478;SDS011;46321;48.398;11.754;2022-11-15T02:40:40;20.27;;;9.55;;
60478;SDS011;46321;48.398;11.754;2022-11-15T02:43:18;17.35;;;9.68;;
60478;SDS011;46321;48.398;11.754;2022-11-15T02:46:12;18.48;;;9.95;;
60478;SDS011;46321;48.398;11.754;2022-11-15T02:49:09;19.50;;;9.00;;
60478;SDS011;46321;48.398;11.754;2022-11-15T02:51:36;19.42;;;9.48;;
60478;SDS011;46321;48.398;11.754;2022-11-15T02:54:01;15.02;;;8.68;;
60478;SDS011;46321;48.398;11.754;2022-11-15T02:56:27;17.45;;;9.85;;
60478;SDS011;46321;48.398;11.754;2022-11-15T02:59:01;19.55;;;9.70;;
60478;SDS011;46321;48.398;11.754;2022-11-15T03:01:43;19.25;;;9.23;;
60478;SDS011;46321;48.398;11.754;2022-11-15T03:04:43;18.88;;;9.50;;
60478;SDS011;46321;48.398;11.754;2022-11-15T03:07:19;19.17;;;9.32;;
60478;SDS011;46321;48.398;11.754;2022-11-15T03:10:08;18.05;;;9.68;;
60478;SDS011;46321;48.398;11.754;2022-11-15T03:12:44;23.02;;;9.77;;
60478;SDS011;46321;48.398;11.754;2022-11-15T03:15:38;22.20;;;10.50;;
60478;SDS011;46321;48.398;11.754;2022-11-15T03:18:46;18.73;;;9.85;;
60478;SDS011;46321;48.398;11.754;2022-11-15T03:21:01;15.98;;;8.90;;
60478;SDS011;46321;48.398;11.754;2022-11-15T03:23:30;16.80;;;9.38;;
60478;SDS011;46321;48.398;11.754;2022-11-15T03:25:58;16.33;;;9.40;;
60478;SDS011;46321;48.398;11.754;2022-11-15T03:28:28;18.88;;;9.30;;
60478;SDS011;46321;48.398;11.754;2022-11-15T03:30:59;18.13;;;9.73;;
60478;SDS011;46321;48.398;11.754;2022-11-15T03:33:46;18.23;;;9.60;;
60478;SDS011;46321;48.398;11.754;2022-11-15T03:36:13;16.17;;;9.02;;
60478;SDS011;46321;48.398;11.754;2022-11-15T03:38:40;18.17;;;9.68;;
60478;SDS011;46321;48.398;11.754;2022-11-15T03:41:08;17.90;;;9.18;;
60478;SDS011;46321;48.398;11.754;2022-11-15T03:43:48;19.52;;;9.30;;
60478;SDS011;46321;48.398;11.754;2022-11-15T03:46:30;15.93;;;8.75;;
60478;SDS011;46321;48.398;11.754;2022-11-15T03:49:00;14.13;;;8.55;;
60478;SDS011;46321;48.398;11.754;2022-11-15T03:51:47;16.05;;;8.80;;
60478;SDS011;46321;48.398;11.754;2022-11-15T03:54:13;16.98;;;8.80;;
60478;SDS011;46321;48.398;11.754;2022-11-15T03:56:38;15.75;;;8.75;;
60478;SDS011;46321;48.398;11.754;2022-11-15T03:59:04;15.40;;;8.43;;
60478;SDS011;46321;48.398;11.754;2022-11-15T04:01:29;15.50;;;8.98;;
60478;SDS011;46321;48.398;11.754;2022-11-15T04:03:54;15.25;;;8.00;;
60478;SDS011;46321;48.398;11.754;2022-11-15T04:06:20;14.52;;;8.57;;
60478;SDS011;46321;48.398;11.754;2022-11-15T04:08:45;15.23;;;8.13;;
60478;SDS011;46321;48.398;11.754;2022-11-15T04:11:10;17.17;;;8.45;;
60478;SDS011;46321;48.398;11.754;2022-11-15T04:13:35;18.08;;;8.80;;
60478;SDS011;46321;48.398;11.754;2022-11-15T04:16:01;14.90;;;8.32;;
60478;SDS011;46321;48.398;11.754;2022-11-15T04:18:26;16.48;;;8.65;;
60478;SDS011;46321;48.398;11.754;2022-11-15T04:20:51;17.55;;;9.10;;
60478;SDS011;46321;48.398;11.754;2022-11-15T04:23:35;13.85;;;7.82;;
60478;SDS011;46321;48.398;11.754;2022-11-15T04:26:19;16.65;;;8.68;;
60478;SDS011;46321;48.398;11.754;2022-11-15T04:28:47;15.32;;;7.93;;
60478;SDS011;46321;48.398;11.754;2022-11-15T04:31:31;15.57;;;8.43;;
60478;SDS011;46321;48.398;11.754;2022-11-15T04:33:56;14.38;;;8.43;;
60478;SDS011;46321;48.398;11.754;2022-11-15T04:36:21;18.38;;;9.18;;
60478;SDS011;46321;48.398;11.754;2022-11-15T04:39:06;16.45;;;9.32;;
60478;SDS011;46321;48.398;11.754;2022-11-15T04:41:31;14.70;;;8.63;;
60478;SDS011;46321;48.398;11.754;2022-11-15T04:43:57;16.40;;;9.15;;
60478;SDS011;46321;48.398;11.754;2022-11-15T04:46:22;19.58;;;9.13;;
60478;SDS011;46321;48.398;11.754;2022-11-15T04:48:49;16.30;;;8.95;;
60478;SDS011;46321;48.398;11.754;2022-11-15T04:51:14;16.52;;;9.15;;
60478;SDS011;46321;48.398;11.754;2022-11-15T04:53:40;16.75;;;9.18;;
60478;SDS011;46321;48.398;11.754;2022-11-15T04:56:05;15.30;;;8.18;;
60478;SDS011;46321;48.398;11.754;2022-11-15T04:58:31;17.67;;;9.00;;
60478;SDS011;46321;48.398;11.754;2022-11-15T05:00:56;16.83;;;8.73;;
60478;SDS011;46321;48.398;11.754;2022-11-15T05:03:21;14.30;;;8.05;;
60478;SDS011;46321;48.398;11.754;2022-11-15T05:06:05;15.75;;;8.82;;
60478;SDS011;46321;48.398;11.754;2022-11-15T05:08:31;18.65;;;8.88;;
60478;SDS011;46321;48.398;11.754;2022-11-15T05:10:56;16.77;;;8.90;;
60478;SDS011;46321;48.398;11.754;2022-11-15T05:13:21;14.82;;;7.88;;
60478;SDS011;46321;48.398;11.754;2022-11-15T05:15:47;14.65;;;8.50;;
60478;SDS011;46321;48.398;11.754;2022-11-15T05:18:12;16.13;;;8.93;;
60478;SDS011;46321;48.398;11.754;2022-11-15T05:20:38;18.52;;;9.43;;
60478;SDS011;46321;48.398;11.754;2022-11-15T05:23:03;16.73;;;8.68;;
60478;SDS011;46321;48.398;11.754;2022-11-15T05:25:28;15.88;;;8.68;;
60478;SDS011;46321;48.398;11.754;2022-11-15T05:27:53;13.77;;;8.45;;
60478;SDS011;46321;48.398;11.754;2022-11-15T05:30:19;18.38;;;9.32;;
60478;SDS011;46321;48.398;11.754;2022-11-15T05:32:44;18.73;;;9.27;;
60478;SDS011;46321;48.398;11.754;2022-11-15T05:35:12;17.20;;;9.52;;
60478;SDS011;46321;48.398;11.754;2022-11-15T05:37:43;20.77;;;11.27;;
60478;SDS011;46321;48.398;11.754;2022-11-15T05:40:08;21.10;;;10.73;;
60478;SDS011;46321;48.398;11.754;2022-11-15T05:42:34;20.35;;;10.60;;
60478;SDS011;46321;48.398;11.754;2022-11-15T05:44:59;20.60;;;10.32;;
60478;SDS011;46321;48.398;11.754;2022-11-15T05:47:27;21.05;;;10.57;;
60478;SDS011;46321;48.398;11.754;2022-11-15T05:49:54;18.98;;;10.52;;
60478;SDS011;46321;48.398;11.754;2022-11-15T05:52:22;21.73;;;10.27;;
60478;SDS011;46321;48.398;11.754;2022-11-15T05:54:50;20.92;;;10.82;;
60478;SDS011;46321;48.398;11.754;2022-11-15T05:57:16;16.77;;;9.95;;
60478;SDS011;46321;48.398;11.754;2022-11-15T05:59:42;20.33;;;10.40;;
60478;SDS011;46321;48.398;11.754;2022-11-15T06:02:08;22.55;;;11.13;;
60478;SDS011;46321;48.398;11.754;2022-11-15T06:04:34;22.48;;;12.07;;
60478;SDS011;46321;48.398;11.754;2022-11-15T06:06:59;19.83;;;11.45;;
60478;SDS011;46321;48.398;11.754;2022-11-15T06:09:25;22.80;;;11.88;;
60478;SDS011;46321;48.398;11.754;2022-11-15T06:11:50;21.42;;;11.88;;
60478;SDS011;46321;48.398;11.754;2022-11-15T06:14:15;19.80;;;11.60;;
60478;SDS011;46321;48.398;11.754;2022-11-15T06:16:40;22.45;;;11.90;;
60478;SDS011;46321;48.398;11.754;2022-11-15T06:19:06;21.58;;;11.30;;
60478;SDS011;46321;48.398;11.754;2022-11-15T06:21:32;20.27;;;11.70;;
60478;SDS011;46321;48.398;11.754;2022-11-15T06:23:57;19.48;;;10.85;;
60478;SDS011;46321;48.398;11.754;2022-11-15T06:26:22;23.02;;;12.25;;
60478;SDS011;46321;48.398;11.754;2022-11-15T06:28:47;30.38;;;16.48;;
60478;SDS011;46321;48.398;11.754;2022-11-15T06:31:13;39.80;;;21.90;;
60478;SDS011;46321;48.398;11.754;2022-11-15T06:33:38;41.67;;;21.42;;
60478;SDS011;46321;48.398;11.754;2022-11-15T06:36:05;39.67;;;19.23;;
60478;SDS011;46321;48.398;11.754;2022-11-15T06:38:33;33.20;;;18.23;;
60478;SDS011;46321;48.398;11.754;2022-11-15T06:41:05;41.70;;;19.48;;
60478;SDS011;46321;48.398;11.754;2022-11-15T06:43:32;39.58;;;18.45;;
60478;SDS011;46321;48.398;11.754;2022-11-15T06:45:58;37.30;;;19.30;;
60478;SDS011;46321;48.398;11.754;2022-11-15T06:48:24;31.38;;;16.10;;
60478;SDS011;46321;48.398;11.754;2022-11-15T06:50:50;24.75;;;13.15;;
60478;SDS011;46321;48.398;11.754;2022-11-15T06:53:19;25.88;;;12.98;;
60478;SDS011;46321;48.398;11.754;2022-11-15T06:55:45;19.08;;;10.80;;
60478;SDS011;46321;48.398;11.754;2022-11-15T06:58:11;20.30;;;11.38;;
60478;SDS011;46321;48.398;11.754;2022-11-15T07:00:36;18.42;;;10.95;;
60478;SDS011;46321;48.398;11.754;2022-11-15T07:03:02;21.40;;;11.13;;
60478;SDS011;46321;48.398;11.754;2022-11-15T07:05:27;18.38;;;10.00;;
60478;SDS011;46321;48.398;11.754;2022-11-15T07:07:54;21.40;;;10.20;;
60478;SDS011;46321;48.398;11.754;2022-11-15T07:10:20;18.13;;;10.10;;
60478;SDS011;46321;48.398;11.754;2022-11-15T07:12:49;22.08;;;10.13;;
60478;SDS011;46321;48.398;11.754;2022-11-15T07:15:15;18.02;;;9.65;;
60478;SDS011;46321;48.398;11.754;2022-11-15T07:17:44;17.60;;;9.73;;
60478;SDS011;46321;48.398;11.754;2022-11-15T07:20:10;16.92;;;10.05;;
60478;SDS011;46321;48.398;11.754;2022-11-15T07:22:36;18.27;;;9.80;;
60478;SDS011;46321;48.398;11.754;2022-11-15T07:25:01;15.18;;;9.23;;
60478;SDS011;46321;48.398;11.754;2022-11-15T07:27:27;16.23;;;9.07;;
60478;SDS011;46321;48.398;11.754;2022-11-15T07:29:52;15.98;;;9.48;;
60478;SDS011;46321;48.398;11.754;2022-11-15T07:32:18;16.30;;;10.38;;
60478;SDS011;46321;48.398;11.754;2022-11-15T07:34:43;18.38;;;9.95;;
60478;SDS011;46321;48.398;11.754;2022-11-15T07:37:10;15.05;;;9.43;;
60478;SDS011;46321;48.398;11.754;2022-11-15T07:39:35;13.25;;;8.73;;
60478;SDS011;46321;48.398;11.754;2022-11-15T07:42:00;15.88;;;9.48;;
60478;SDS011;46321;48.398;11.754;2022-11-15T07:44:44;11.80;;;7.85;;
60478;SDS011;46321;48.398;11.754;2022-11-15T07:47:10;22.42;;;13.38;;
60478;SDS011;46321;48.398;11.754;2022-11-15T07:49:35;21.52;;;12.77;;
60478;SDS011;46321;48.398;11.754;2022-11-15T07:52:00;14.98;;;9.05;;
60478;SDS011;46321;48.398;11.754;2022-11-15T07:54:26;14.10;;;8.88;;
60478;SDS011;46321;48.398;11.754;2022-11-15T07:56:51;11.75;;;7.95;;
60478;SDS011;46321;48.398;11.754;2022-11-15T07:59:16;14.13;;;7.97;;
60478;SDS011;46321;48.398;11.754;2022-11-15T08:01:42;12.43;;;8.20;;
60478;SDS011;46321;48.398;11.754;2022-11-15T08:04:07;13.65;;;8.85;;
60478;SDS011;46321;48.398;11.754;2022-11-15T08:06:32;10.57;;;7.63;;
60478;SDS011;46321;48.398;11.754;2022-11-15T08:08:57;12.10;;;8.25;;
60478;SDS011;46321;48.398;11.754;2022-11-15T08:11:23;10.80;;;7.40;;
60478;SDS011;46321;48.398;11.754;2022-11-15T08:13:48;10.93;;;7.43;;
60478;SDS011;46321;48.398;11.754;2022-11-15T08:16:13;11.88;;;7.93;;
60478;SDS011;46321;48.398;11.754;2022-11-15T08:18:38;10.73;;;7.13;;
60478;SDS011;46321;48.398;11.754;2022-11-15T08:21:04;10.00;;;7.72;;
60478;SDS011;46321;48.398;11.754;2022-11-15T08:23:29;15.82;;;10.32;;
60478;SDS011;46321;48.398;11.754;2022-11-15T08:25:59;13.07;;;9.13;;
60478;SDS011;46321;48.398;11.754;2022-11-15T08:28:28;12.13;;;8.80;;
60478;SDS011;46321;48.398;11.754;2022-11-15T08:30:54;14.35;;;10.52;;
60478;SDS011;46321;48.398;11.754;2022-11-15T08:33:19;14.18;;;9.98;;
60478;SDS011;46321;48.398;11.754;2022-11-15T08:35:44;15.13;;;10.55;;
60478;SDS011;46321;48.398;11.754;2022-11-15T08:38:10;14.65;;;10.00;;
60478;SDS011;46321;48.398;11.754;2022-11-15T08:40:35;12.25;;;9.55;;
60478;SDS011;46321;48.398;11.754;2022-11-15T08:43:01;11.60;;;8.00;;
60478;SDS011;46321;48.398;11.754;2022-11-15T08:45:28;11.05;;;7.65;;
60478;SDS011;46321;48.398;11.754;2022-11-15T08:47:54;10.13;;;7.70;;
60478;SDS011;46321;48.398;11.754;2022-11-15T08:50:19;9.50;;;7.00;;
60478;SDS011;46321;48.398;11.754;2022-11-15T08:52:45;9.82;;;7.45;;
60478;SDS011;46321;48.398;11.754;2022-11-15T08:55:10;8.80;;;6.68;;
60478;SDS011;46321;48.398;11.754;2022-11-15T08:57:35;9.03;;;6.90;;
60478;SDS011;46321;48.398;11.754;2022-11-15T09:00:00;7.65;;;6.20;;
60478;SDS011;46321;48.398;11.754;2022-11-15T09:02:26;8.32;;;6.38;;
60478;SDS011;46321;48.398;11.754;2022-11-15T09:04:51;8.27;;;6.57;;
60478;SDS011;46321;48.398;11.754;2022-11-15T09:07:16;10.02;;;7.15;;
60478;SDS011;46321;48.398;11.754;2022-11-15T09:09:42;7.30;;;6.30;;
60478;SDS011;46321;48.398;11.754;2022-11-15T09:12:07;8.37;;;5.87;;
60478;SDS011;46321;48.398;11.754;2022-11-15T09:14:32;8.23;;;6.32;;
60478;SDS011;46321;48.398;11.754;2022-11-15T09:16:58;8.60;;;6.20;;
60478;SDS011;46321;48.398;11.754;2022-11-15T09:19:23;7.13;;;6.00;;
60478;SDS011;46321;48.398;11.754;2022-11-15T09:21:49;9.50;;;6.20;;
60478;SDS011;46321;48.398;11.754;2022-11-15T09:24:15;7.85;;;6.13;;
60478;SDS011;46321;48.398;11.754;2022-11-15T09:26:40;7.75;;;6.03;;
60478;SDS011;46321;48.398;11.754;2022-11-15T09:29:05;5.65;;;4.97;;
60478;SDS011;46321;48.398;11.754;2022-11-15T09:31:31;7.07;;;5.68;;
60478;SDS011;46321;48.398;11.754;2022-11-15T09:33:56;6.95;;;4.82;;
60478;SDS011;46321;48.398;11.754;2022-11-15T09:36:21;6.55;;;5.40;;
60478;SDS011;46321;48.398;11.754;2022-11-15T09:38:46;6.93;;;5.63;;
60478;SDS011;46321;48.398;11.754;2022-11-15T09:51:26;5.95;;;5.10;;
60478;SDS011;46321;48.398;11.754;2022-11-15T09:56:22;7.63;;;6.07;;
60478;SDS011;46321;48.398;11.754;2022-11-15T10:01:54;7.90;;;5.97;;
60478;SDS011;46321;48.398;11.754;2022-11-15T10:04:33;6.57;;;5.57;;
60478;SDS011;46321;48.398;11.754;2022-11-15T10:07:06;7.57;;;5.93;;
60478;SDS011;46321;48.398;11.754;2022-11-15T10:09:42;8.52;;;5.82;;
60478;SDS011;46321;48.398;11.754;2022-11-15T10:12:14;7.60;;;5.90;;
60478;SDS011;46321;48.398;11.754;2022-11-15T10:14:40;6.63;;;5.10;;
60478;SDS011;46321;48.398;11.754;2022-11-15T10:17:22;9.68;;;8.30;;
60478;SDS011;46321;48.398;11.754;2022-11-15T10:22:35;6.45;;;5.20;;
60478;SDS011;46321;48.398;11.754;2022-11-15T10:25:18;5.45;;;4.88;;
60478;SDS011;46321;48.398;11.754;2022-11-15T10:27:50;5.88;;;5.20;;
60478;SDS011;46321;48.398;11.754;2022-11-15T10:30:19;7.28;;;6.28;;
60478;SDS011;46321;48.398;11.754;2022-11-15T10:32:45;6.43;;;5.50;;
60478;SDS011;46321;48.398;11.754;2022-11-15T10:37:56;6.20;;;4.97;;
60478;SDS011;46321;48.398;11.754;2022-11-15T10:40:30;4.47;;;4.03;;
60478;SDS011;46321;48.398;11.754;2022-11-15T10:43:10;4.60;;;3.73;;
60478;SDS011;46321;48.398;11.754;2022-11-15T10:45:39;5.05;;;4.22;;
60478;SDS011;46321;48.398;11.754;2022-11-15T10:50:39;4.72;;;4.30;;
60478;SDS011;46321;48.398;11.754;2022-11-15T10:53:48;7.32;;;5.25;;
60478;SDS011;46321;48.398;11.754;2022-11-15T10:56:05;6.95;;;5.10;;
60478;SDS011;46321;48.398;11.754;2022-11-15T10:58:34;4.60;;;3.60;;
60478;SDS011;46321;48.398;11.754;2022-11-15T11:03:35;4.35;;;3.95;;
60478;SDS011;46321;48.398;11.754;2022-11-15T11:06:07;4.60;;;4.03;;
60478;SDS011;46321;48.398;11.754;2022-11-15T11:08:38;6.50;;;4.40;;
60478;SDS011;46321;48.398;11.754;2022-11-15T11:11:04;6.00;;;4.53;;
60478;SDS011;46321;48.398;11.754;2022-11-15T11:13:37;5.40;;;4.70;;
60478;SDS011;46321;48.398;11.754;2022-11-15T11:18:39;6.57;;;4.68;;
60478;SDS011;46321;48.398;11.754;2022-11-15T11:21:16;5.35;;;4.25;;
60478;SDS011;46321;48.398;11.754;2022-11-15T11:23:54;6.53;;;5.38;;
60478;SDS011;46321;48.398;11.754;2022-11-15T11:32:02;7.00;;;5.40;;
60478;SDS011;46321;48.398;11.754;2022-11-15T11:38:06;10.68;;;5.20;;
60478;SDS011;46321;48.398;11.754;2022-11-15T11:40:48;5.82;;;4.90;;
60478;SDS011;46321;48.398;11.754;2022-11-15T11:49:10;7.93;;;5.20;;
60478;SDS011;46321;48.398;11.754;2022-11-15T11:51:51;8.88;;;5.40;;
60478;SDS011;46321;48.398;11.754;2022-11-15T11:54:37;8.05;;;6.05;;
60478;SDS011;46321;48.398;11.754;2022-11-15T11:57:14;6.38;;;4.93;;
60478;SDS011;46321;48.398;11.754;2022-11-15T11:59:48;9.20;;;5.82;;
60478;SDS011;46321;48.398;11.754;2022-11-15T12:02:21;8.80;;;6.15;;
60478;SDS011;46321;48.398;11.754;2022-11-15T12:04:55;8.25;;;5.88;;
60478;SDS011;46321;48.398;11.754;2022-11-15T12:07:42;8.00;;;5.32;;
60478;SDS011;46321;48.398;11.754;2022-11-15T12:10:24;7.55;;;5.22;;
60478;SDS011;46321;48.398;11.754;2022-11-15T12:12:55;8.98;;;5.38;;
60478;SDS011;46321;48.398;11.754;2022-11-15T12:15:27;7.15;;;5.47;;
60478;SDS011;46321;48.398;11.754;2022-11-15T12:17:59;7.93;;;5.13;;
60478;SDS011;46321;48.398;11.754;2022-11-15T12:20:27;8.02;;;5.38;;
60478;SDS011;46321;48.398;11.754;2022-11-15T12:22:56;7.90;;;5.47;;
60478;SDS011;46321;48.398;11.754;2022-11-15T12:25:47;8.18;;;5.22;;
60478;SDS011;46321;48.398;11.754;2022-11-15T12:33:48;8.25;;;4.72;;
60478;SDS011;46321;48.398;11.754;2022-11-15T12:38:58;7.32;;;4.18;;
60478;SDS011;46321;48.398;11.754;2022-11-15T12:41:38;5.75;;;3.83;;
60478;SDS011;46321;48.398;11.754;2022-11-15T12:44:10;5.18;;;4.10;;
60478;SDS011;46321;48.398;11.754;2022-11-15T12:49:47;6.13;;;3.28;;
60478;SDS011;46321;48.398;11.754;2022-11-15T13:02:20;5.38;;;3.78;;
60478;SDS011;46321;48.398;11.754;2022-11-15T13:04:49;4.85;;;3.30;;
60478;SDS011;46321;48.398;11.754;2022-11-15T13:22:42;4.97;;;3.42;;
60478;SDS011;46321;48.398;11.754;2022-11-15T13:27:59;6.30;;;3.83;;
60478;SDS011;46321;48.398;11.754;2022-11-15T13:30:26;4.97;;;3.63;;
60478;SDS011;46321;48.398;11.754;2022-11-15T13:32:54;7.15;;;3.97;;
60478;SDS011;46321;48.398;11.754;2022-11-15T13:35:21;7.20;;;3.80;;
60478;SDS011;46321;48.398;11.754;2022-11-15T13:37:48;6.78;;;3.60;;
60478;SDS011;46321;48.398;11.754;2022-11-15T13:42:46;7.53;;;3.92;;
60478;SDS011;46321;48.398;11.754;2022-11-15T13:45:13;6.70;;;4.10;;
60478;SDS011;46321;48.398;11.754;2022-11-15T13:47:41;6.55;;;3.78;;
60478;SDS011;46321;48.398;11.754;2022-11-15T13:50:10;9.13;;;4.35;;
60478;SDS011;46321;48.398;11.754;2022-11-15T13:52:36;7.53;;;4.20;;
60478;SDS011;46321;48.398;11.754;2022-11-15T13:55:21;6.78;;;4.20;;
60478;SDS011;46321;48.398;11.754;2022-11-15T14:00:27;7.93;;;4.45;;
60478;SDS011;46321;48.398;11.754;2022-11-15T14:08:37;6.80;;;3.95;;
60478;SDS011;46321;48.398;11.754;2022-11-15T14:11:13;6.97;;;4.30;;
60478;SDS011;46321;48.398;11.754;2022-11-15T14:13:59;5.55;;;3.88;;
60478;SDS011;46321;48.398;11.754;2022-11-15T14:16:33;5.47;;;3.67;;
60478;SDS011;46321;48.398;11.754;2022-11-15T14:19:01;6.47;;;4.05;;
60478;SDS011;46321;48.398;11.754;2022-11-15T14:21:26;6.57;;;4.15;;
60478;SDS011;46321;48.398;11.754;2022-11-15T14:23:51;8.43;;;4.10;;
60478;SDS011;46321;48.398;11.754;2022-11-15T14:26:27;6.45;;;3.95;;
60478;SDS011;46321;48.398;11.754;2022-11-15T14:28:55;7.53;;;4.20;;
60478;SDS011;46321;48.398;11.754;2022-11-15T14:31:20;5.72;;;4.15;;
60478;SDS011;46321;48.398;11.754;2022-11-15T14:33:46;6.18;;;4.15;;
60478;SDS011;46321;48.398;11.754;2022-11-15T14:36:13;7.07;;;4.30;;
60478;SDS011;46321;48.398;11.754;2022-11-15T14:38:43;7.57;;;4.25;;
60478;SDS011;46321;48.398;11.754;2022-11-15T14:41:27;8.68;;;4.43;;
60478;SDS011;46321;48.398;11.754;2022-11-15T14:43:52;8.10;;;4.32;;
60478;SDS011;46321;48.398;11.754;2022-11-15T14:46:18;6.32;;;3.97;;
60478;SDS011;46321;48.398;11.754;2022-11-15T14:48:43;7.30;;;4.28;;
60478;SDS011;46321;48.398;11.754;2022-11-15T14:51:12;6.05;;;4.30;;
60478;SDS011;46321;48.398;11.754;2022-11-15T14:53:40;6.72;;;4.30;;
60478;SDS011;46321;48.398;11.754;2022-11-15T14:56:06;7.15;;;4.22;;
60478;SDS011;46321;48.398;11.754;2022-11-15T14:58:32;8.13;;;5.28;;
60478;SDS011;46321;48.398;11.754;2022-11-15T15:00:57;9.45;;;5.78;;
60478;SDS011;46321;48.398;11.754;2022-11-15T15:03:22;11.32;;;6.15;;
60478;SDS011;46321;48.398;11.754;2022-11-15T15:05:47;9.30;;;6.10;;
60478;SDS011;46321;48.398;11.754;2022-11-15T15:08:13;9.38;;;5.50;;
60478;SDS011;46321;48.398;11.754;2022-11-15T15:10:39;8.98;;;5.25;;
60478;SDS011;46321;48.398;11.754;2022-11-15T15:13:23;10.30;;;5.50;;
60478;SDS011;46321;48.398;11.754;2022-11-15T15:15:49;9.63;;;5.20;;
60478;SDS011;46321;48.398;11.754;2022-11-15T15:18:16;7.40;;;5.03;;
60478;SDS011;46321;48.398;11.754;2022-11-15T15:20:42;8.15;;;4.68;;
60478;SDS011;46321;48.398;11.754;2022-11-15T15:23:18;8.95;;;5.28;;
60478;SDS011;46321;48.398;11.754;2022-11-15T15:25:45;8.45;;;5.15;;
60478;SDS011;46321;48.398;11.754;2022-11-15T15:28:11;10.02;;;6.20;;
60478;SDS011;46321;48.398;11.754;2022-11-15T15:30:37;9.88;;;5.65;;
60478;SDS011;46321;48.398;11.754;2022-11-15T15:33:03;8.75;;;5.68;;
60478;SDS011;46321;48.398;11.754;2022-11-15T15:35:32;9.60;;;5.43;;
60478;SDS011;46321;48.398;11.754;2022-11-15T15:37:58;9.93;;;5.90;;
60478;SDS011;46321;48.398;11.754;2022-11-15T15:40:25;11.80;;;5.60;;
60478;SDS011;46321;48.398;11.754;2022-11-15T15:42:52;11.98;;;6.05;;
60478;SDS011;46321;48.398;11.754;2022-11-15T15:45:17;10.95;;;5.53;;
60478;SDS011;46321;48.398;11.754;2022-11-15T15:47:43;8.68;;;5.32;;
60478;SDS011;46321;48.398;11.754;2022-11-15T15:52:50;10.48;;;5.63;;
60478;SDS011;46321;48.398;11.754;2022-11-15T15:55:16;11.50;;;5.28;;
60478;SDS011;46321;48.398;11.754;2022-11-15T15:57:41;9.55;;;5.25;;
60478;SDS011;46321;48.398;11.754;2022-11-15T16:00:07;16.92;;;8.90;;
60478;SDS011;46321;48.398;11.754;2022-11-15T16:02:34;42.58;;;22.88;;
60478;SDS011;46321;48.398;11.754;2022-11-15T16:04:59;24.33;;;11.32;;
60478;SDS011;46321;48.398;11.754;2022-11-15T16:07:24;12.40;;;7.00;;
60478;SDS011;46321;48.398;11.754;2022-11-15T16:09:50;9.15;;;5.68;;
60478;SDS011;46321;48.398;11.754;2022-11-15T16:12:32;10.63;;;5.95;;
60478;SDS011;46321;48.398;11.754;2022-11-15T16:14:59;10.43;;;5.85;;
60478;SDS011;46321;48.398;11.754;2022-11-15T16:17:26;11.50;;;6.28;;
60478;SDS011;46321;48.398;11.754;2022-11-15T16:19:53;11.95;;;6.13;;
60478;SDS011;46321;48.398;11.754;2022-11-15T16:22:19;11.18;;;6.22;;
60478;SDS011;46321;48.398;11.754;2022-11-15T16:24:45;10.52;;;6.00;;
60478;SDS011;46321;48.398;11.754;2022-11-15T16:27:12;10.52;;;5.50;;